EWG4GA EDDK-EDDH
Flight info
| Callsign | EWG4GA |
|---|---|
| Flight time | 0h 46m |
| Altitude | 35000 |
| Route | PODIP1R PODIP Y867 PELUN DCT ANZIV DCT WRB Y867 TOLGI DCT SAS/N0448F340 P605 NOLGO NOLGO3P |
| Aircraft | A320/M-SDE3FGHIRWY/LB1 |
Departure
| Time | 2026-04-24 19:52 |
|---|---|
| Airport | Cologne Bonn Airport (EDDK) |
Arrival
| Time | 2026-04-24 20:38 |
|---|---|
| Airport | Hamburg Helmut Schmidt Airport (EDDH) |
| Time | Latitude | Longitude | Altitude | Speed | Heading |
|---|---|---|---|---|---|
| 2026-04-24 19:22 | 50.87875 | 7.12455 | 230 ft | 0 kts | 288° |
| 2026-04-24 19:38 | 50.87874 | 7.12457 | 203 ft | 2 kts | 288° |
| 2026-04-24 19:38 | 50.87867 | 7.12495 | 231 ft | 4 kts | 288° |
| 2026-04-24 19:38 | 50.87860 | 7.12529 | 231 ft | 3 kts | 288° |
| 2026-04-24 19:39 | 50.87855 | 7.12568 | 230 ft | 4 kts | 257° |
| 2026-04-24 19:39 | 50.87867 | 7.12600 | 233 ft | 4 kts | 205° |
| 2026-04-24 19:39 | 50.87891 | 7.12613 | 233 ft | 4 kts | 198° |
| 2026-04-24 19:39 | 50.87901 | 7.12618 | 233 ft | 0 kts | 198° |
| 2026-04-24 19:42 | 50.87898 | 7.12617 | 233 ft | 3 kts | 198° |
| 2026-04-24 19:43 | 50.87847 | 7.12610 | 231 ft | 2 kts | 173° |
| 2026-04-24 19:43 | 50.87800 | 7.12657 | 231 ft | 14 kts | 139° |
| 2026-04-24 19:43 | 50.87713 | 7.12781 | 230 ft | 18 kts | 137° |
| 2026-04-24 19:43 | 50.87622 | 7.12912 | 230 ft | 17 kts | 137° |
| 2026-04-24 19:44 | 50.87535 | 7.13037 | 231 ft | 16 kts | 137° |
| 2026-04-24 19:44 | 50.87461 | 7.13145 | 232 ft | 13 kts | 137° |
| 2026-04-24 19:44 | 50.87395 | 7.13241 | 233 ft | 12 kts | 137° |
| 2026-04-24 19:44 | 50.87339 | 7.13323 | 234 ft | 10 kts | 137° |
| 2026-04-24 19:45 | 50.87292 | 7.13389 | 238 ft | 8 kts | 137° |
| 2026-04-24 19:45 | 50.87230 | 7.13479 | 237 ft | 18 kts | 137° |
| 2026-04-24 19:45 | 50.87130 | 7.13624 | 240 ft | 19 kts | 138° |
| 2026-04-24 19:45 | 50.87033 | 7.13762 | 242 ft | 18 kts | 138° |
| 2026-04-24 19:46 | 50.86946 | 7.13893 | 244 ft | 16 kts | 135° |
| 2026-04-24 19:46 | 50.86857 | 7.14026 | 246 ft | 19 kts | 137° |
| 2026-04-24 19:46 | 50.86752 | 7.14142 | 252 ft | 17 kts | 153° |
| 2026-04-24 19:46 | 50.86671 | 7.14232 | 257 ft | 13 kts | 140° |
| 2026-04-24 19:47 | 50.86599 | 7.14331 | 258 ft | 16 kts | 138° |
| 2026-04-24 19:47 | 50.86504 | 7.14470 | 258 ft | 21 kts | 136° |
| 2026-04-24 19:47 | 50.86399 | 7.14625 | 264 ft | 21 kts | 137° |
| 2026-04-24 19:47 | 50.86288 | 7.14790 | 268 ft | 22 kts | 136° |
| 2026-04-24 19:48 | 50.86169 | 7.14962 | 271 ft | 24 kts | 138° |
| 2026-04-24 19:48 | 50.86043 | 7.15139 | 276 ft | 25 kts | 139° |
| 2026-04-24 19:48 | 50.85789 | 7.15507 | 294 ft | 24 kts | 137° |
| 2026-04-24 19:49 | 50.85525 | 7.15886 | 299 ft | 27 kts | 136° |
| 2026-04-24 19:49 | 50.85601 | 7.16196 | 307 ft | 15 kts | 46° |
| 2026-04-24 19:50 | 50.85733 | 7.16258 | 309 ft | 0 kts | 318° |
| 2026-04-24 19:51 | 50.86204 | 7.15578 | 279 ft | 117 kts | 317° |
| 2026-04-24 19:51 | 50.86949 | 7.14506 | 302 ft | 167 kts | 319° |
| 2026-04-24 19:52 | 50.88647 | 7.12186 | 1838 ft | 165 kts | 319° |
| 2026-04-24 19:52 | 50.89697 | 7.11264 | 2252 ft | 186 kts | 352° |
| 2026-04-24 19:52 | 50.91022 | 7.11715 | 2734 ft | 208 kts | 26° |
| 2026-04-24 19:52 | 50.92311 | 7.12805 | 3636 ft | 211 kts | 26° |
| 2026-04-24 19:53 | 50.93496 | 7.14203 | 4568 ft | 217 kts | 48° |
| 2026-04-24 19:53 | 50.94323 | 7.16365 | 5134 ft | 243 kts | 61° |
| 2026-04-24 19:53 | 50.95920 | 7.21466 | 6715 ft | 266 kts | 62° |
| 2026-04-24 19:54 | 50.96746 | 7.24125 | 7630 ft | 271 kts | 62° |
| 2026-04-24 19:54 | 50.97593 | 7.26833 | 8533 ft | 276 kts | 62° |
| 2026-04-24 19:54 | 50.98457 | 7.29583 | 9444 ft | 281 kts | 62° |
| 2026-04-24 19:54 | 50.99341 | 7.32397 | 10313 ft | 287 kts | 62° |
| 2026-04-24 19:55 | 50.99634 | 7.33327 | 10502 ft | 293 kts | 62° |
| 2026-04-24 19:55 | 51.01056 | 7.38661 | 11066 ft | 335 kts | 74° |
| 2026-04-24 19:55 | 51.01399 | 7.42371 | 11486 ft | 352 kts | 87° |
| 2026-04-24 19:55 | 51.01213 | 7.46285 | 12195 ft | 360 kts | 100° |
| 2026-04-24 19:56 | 51.00536 | 7.50146 | 12938 ft | 366 kts | 107° |
| 2026-04-24 19:56 | 50.99767 | 7.54024 | 13709 ft | 371 kts | 107° |
| 2026-04-24 19:56 | 50.98992 | 7.57954 | 14410 ft | 376 kts | 107° |
| 2026-04-24 19:56 | 50.98208 | 7.61945 | 15068 ft | 381 kts | 107° |
| 2026-04-24 19:57 | 50.97415 | 7.65988 | 15730 ft | 386 kts | 107° |
| 2026-04-24 19:57 | 50.96881 | 7.68702 | 16162 ft | 390 kts | 108° |
| 2026-04-24 19:57 | 50.96071 | 7.72828 | 16811 ft | 394 kts | 107° |
| 2026-04-24 19:57 | 50.95538 | 7.77126 | 17428 ft | 400 kts | 95° |
| 2026-04-24 19:58 | 50.95555 | 7.81559 | 18046 ft | 405 kts | 83° |
| 2026-04-24 19:58 | 50.96141 | 7.85950 | 18624 ft | 409 kts | 71° |
| 2026-04-24 19:58 | 50.97286 | 7.90090 | 19155 ft | 412 kts | 59° |
| 2026-04-24 19:58 | 50.98756 | 7.94023 | 19687 ft | 415 kts | 58° |
| 2026-04-24 19:59 | 51.00234 | 7.97987 | 20221 ft | 419 kts | 58° |
| 2026-04-24 19:59 | 51.01719 | 8.02005 | 20761 ft | 423 kts | 58° |
| 2026-04-24 19:59 | 51.03212 | 8.06060 | 21287 ft | 427 kts | 58° |
| 2026-04-24 19:59 | 51.04718 | 8.10162 | 21801 ft | 431 kts | 58° |
| 2026-04-24 20:00 | 51.06232 | 8.14298 | 22324 ft | 435 kts | 58° |
| 2026-04-24 20:00 | 51.07761 | 8.18479 | 22808 ft | 439 kts | 58° |
| 2026-04-24 20:00 | 51.09305 | 8.22704 | 23315 ft | 443 kts | 58° |
| 2026-04-24 20:00 | 51.10859 | 8.26961 | 23790 ft | 447 kts | 58° |
| 2026-04-24 20:01 | 51.12423 | 8.31257 | 24214 ft | 450 kts | 58° |
| 2026-04-24 20:01 | 51.13995 | 8.35592 | 24626 ft | 453 kts | 58° |
| 2026-04-24 20:01 | 51.15574 | 8.39961 | 25021 ft | 457 kts | 58° |
| 2026-04-24 20:01 | 51.17139 | 8.44308 | 25406 ft | 460 kts | 58° |
| 2026-04-24 20:02 | 51.18736 | 8.48745 | 25794 ft | 463 kts | 58° |
| 2026-04-24 20:02 | 51.20444 | 8.53107 | 26173 ft | 464 kts | 51° |
| 2026-04-24 20:02 | 51.22472 | 8.57117 | 26550 ft | 465 kts | 47° |
| 2026-04-24 20:02 | 51.24563 | 8.61085 | 26935 ft | 468 kts | 47° |
| 2026-04-24 20:03 | 51.26663 | 8.65076 | 27343 ft | 471 kts | 47° |
| 2026-04-24 20:03 | 51.28778 | 8.69110 | 27686 ft | 475 kts | 47° |
| 2026-04-24 20:03 | 51.30906 | 8.73181 | 28035 ft | 478 kts | 47° |
| 2026-04-24 20:03 | 51.33042 | 8.77274 | 28382 ft | 481 kts | 47° |
| 2026-04-24 20:04 | 51.35186 | 8.81403 | 28712 ft | 484 kts | 47° |
| 2026-04-24 20:04 | 51.37342 | 8.85563 | 29037 ft | 487 kts | 47° |
| 2026-04-24 20:04 | 51.39513 | 8.89744 | 29355 ft | 489 kts | 47° |
| 2026-04-24 20:04 | 51.41699 | 8.93942 | 29666 ft | 492 kts | 47° |
| 2026-04-24 20:05 | 51.43901 | 8.98168 | 30004 ft | 495 kts | 47° |
| 2026-04-24 20:05 | 51.46109 | 9.02417 | 30275 ft | 498 kts | 47° |
| 2026-04-24 20:05 | 51.48326 | 9.06702 | 30560 ft | 500 kts | 47° |
| 2026-04-24 20:05 | 51.50627 | 9.10867 | 30925 ft | 496 kts | 40° |
| 2026-04-24 20:06 | 51.53171 | 9.14463 | 31305 ft | 491 kts | 34° |
| 2026-04-24 20:06 | 51.55837 | 9.17892 | 31710 ft | 490 kts | 34° |
| 2026-04-24 20:06 | 51.58495 | 9.21321 | 32108 ft | 489 kts | 34° |
| 2026-04-24 20:06 | 51.61137 | 9.24747 | 32524 ft | 487 kts | 34° |
| 2026-04-24 20:07 | 51.62883 | 9.27020 | 32795 ft | 487 kts | 34° |
| 2026-04-24 20:07 | 51.66396 | 9.31603 | 33315 ft | 485 kts | 34° |
| 2026-04-24 20:07 | 51.69015 | 9.35024 | 33776 ft | 483 kts | 34° |
| 2026-04-24 20:07 | 51.71618 | 9.38430 | 34185 ft | 481 kts | 34° |
| 2026-04-24 20:08 | 51.74215 | 9.41833 | 34577 ft | 480 kts | 34° |
| 2026-04-24 20:08 | 51.76798 | 9.45221 | 34959 ft | 478 kts | 35° |
| 2026-04-24 20:08 | 51.79349 | 9.48569 | 35134 ft | 477 kts | 35° |
| 2026-04-24 20:09 | 51.84705 | 9.54745 | 35170 ft | 468 kts | 23° |
| 2026-04-24 20:09 | 51.90512 | 9.59528 | 34992 ft | 467 kts | 22° |
| 2026-04-24 20:09 | 51.93408 | 9.61928 | 34744 ft | 468 kts | 22° |
| 2026-04-24 20:10 | 51.96310 | 9.64342 | 34504 ft | 468 kts | 22° |
| 2026-04-24 20:10 | 51.99211 | 9.66757 | 34264 ft | 469 kts | 22° |
| 2026-04-24 20:10 | 52.02115 | 9.69177 | 34005 ft | 470 kts | 22° |
| 2026-04-24 20:10 | 52.05024 | 9.71604 | 33731 ft | 471 kts | 22° |
| 2026-04-24 20:11 | 52.07938 | 9.74040 | 33459 ft | 471 kts | 22° |
| 2026-04-24 20:11 | 52.10824 | 9.76451 | 33181 ft | 472 kts | 22° |
| 2026-04-24 20:11 | 52.13751 | 9.78898 | 32534 ft | 474 kts | 22° |
| 2026-04-24 20:11 | 52.16687 | 9.81356 | 31814 ft | 474 kts | 22° |
| 2026-04-24 20:12 | 52.19624 | 9.83820 | 31114 ft | 476 kts | 22° |
| 2026-04-24 20:12 | 52.22574 | 9.86299 | 30431 ft | 477 kts | 22° |
| 2026-04-24 20:12 | 52.25596 | 9.88523 | 29667 ft | 473 kts | 14° |
| 2026-04-24 20:12 | 52.28735 | 9.90039 | 28889 ft | 470 kts | 9° |
| 2026-04-24 20:13 | 52.31883 | 9.91419 | 28128 ft | 467 kts | 10° |
| 2026-04-24 20:13 | 52.35005 | 9.92787 | 27412 ft | 462 kts | 10° |
| 2026-04-24 20:13 | 52.38092 | 9.94144 | 26693 ft | 457 kts | 10° |
| 2026-04-24 20:13 | 52.41151 | 9.95493 | 25991 ft | 453 kts | 11° |
| 2026-04-24 20:14 | 52.44177 | 9.96829 | 25291 ft | 448 kts | 11° |
| 2026-04-24 20:14 | 52.47169 | 9.98149 | 24622 ft | 443 kts | 11° |
| 2026-04-24 20:14 | 52.50134 | 9.99457 | 23969 ft | 439 kts | 11° |
| 2026-04-24 20:14 | 52.53037 | 10.00741 | 23255 ft | 435 kts | 11° |
| 2026-04-24 20:15 | 52.55951 | 10.02035 | 22499 ft | 431 kts | 11° |
| 2026-04-24 20:15 | 52.58837 | 10.03323 | 21784 ft | 428 kts | 11° |
| 2026-04-24 20:15 | 52.61702 | 10.04601 | 21067 ft | 425 kts | 11° |
| 2026-04-24 20:15 | 52.64542 | 10.05869 | 20367 ft | 421 kts | 11° |
| 2026-04-24 20:16 | 52.67358 | 10.07128 | 19681 ft | 418 kts | 11° |
| 2026-04-24 20:16 | 52.70154 | 10.08382 | 19012 ft | 414 kts | 11° |
| 2026-04-24 20:16 | 52.72924 | 10.09629 | 18343 ft | 411 kts | 12° |
| 2026-04-24 20:16 | 52.75674 | 10.10861 | 17597 ft | 408 kts | 11° |
| 2026-04-24 20:17 | 52.78437 | 10.11693 | 16868 ft | 401 kts | 2° |
| 2026-04-24 20:17 | 52.83775 | 10.11971 | 15464 ft | 366 kts | 358° |
| 2026-04-24 20:17 | 52.86273 | 10.12055 | 14776 ft | 352 kts | 358° |
| 2026-04-24 20:18 | 52.87877 | 10.12110 | 14328 ft | 344 kts | 358° |
| 2026-04-24 20:18 | 52.91001 | 10.12219 | 13383 ft | 329 kts | 358° |
| 2026-04-24 20:18 | 52.93254 | 10.12295 | 12657 ft | 319 kts | 358° |
| 2026-04-24 20:18 | 52.95447 | 10.12367 | 11948 ft | 311 kts | 358° |
| 2026-04-24 20:19 | 52.97555 | 10.12438 | 11358 ft | 302 kts | 358° |
| 2026-04-24 20:19 | 52.99638 | 10.12510 | 11189 ft | 299 kts | 358° |
| 2026-04-24 20:19 | 53.01716 | 10.12579 | 11159 ft | 299 kts | 358° |
| 2026-04-24 20:19 | 53.03796 | 10.12647 | 11170 ft | 299 kts | 358° |
| 2026-04-24 20:20 | 53.05876 | 10.12714 | 11162 ft | 299 kts | 358° |
| 2026-04-24 20:20 | 53.07960 | 10.12779 | 11167 ft | 299 kts | 358° |
| 2026-04-24 20:20 | 53.10052 | 10.12843 | 11162 ft | 300 kts | 358° |
| 2026-04-24 20:20 | 53.12135 | 10.12910 | 11168 ft | 299 kts | 358° |
| 2026-04-24 20:21 | 53.14215 | 10.12978 | 11159 ft | 299 kts | 358° |
| 2026-04-24 20:21 | 53.16299 | 10.13049 | 11158 ft | 299 kts | 358° |
| 2026-04-24 20:21 | 53.18377 | 10.13120 | 11158 ft | 299 kts | 358° |
| 2026-04-24 20:21 | 53.20459 | 10.13190 | 11161 ft | 299 kts | 358° |
| 2026-04-24 20:22 | 53.22539 | 10.13257 | 11160 ft | 299 kts | 358° |
| 2026-04-24 20:22 | 53.24618 | 10.13327 | 11157 ft | 299 kts | 358° |
| 2026-04-24 20:22 | 53.26694 | 10.13398 | 11159 ft | 299 kts | 358° |
| 2026-04-24 20:22 | 53.28770 | 10.13468 | 11160 ft | 299 kts | 358° |
| 2026-04-24 20:23 | 53.30854 | 10.13537 | 11047 ft | 299 kts | 358° |
| 2026-04-24 20:23 | 53.32923 | 10.13604 | 10810 ft | 296 kts | 358° |
| 2026-04-24 20:23 | 53.34982 | 10.13669 | 10568 ft | 295 kts | 358° |
| 2026-04-24 20:23 | 53.37026 | 10.13734 | 10328 ft | 293 kts | 358° |
| 2026-04-24 20:24 | 53.38377 | 10.13778 | 10173 ft | 292 kts | 358° |
| 2026-04-24 20:24 | 53.41053 | 10.13655 | 9971 ft | 290 kts | 353° |
| 2026-04-24 20:24 | 53.43061 | 10.13398 | 9831 ft | 289 kts | 353° |
| 2026-04-24 20:24 | 53.45071 | 10.13142 | 9710 ft | 289 kts | 353° |
| 2026-04-24 20:25 | 53.47073 | 10.12888 | 9563 ft | 288 kts | 353° |
| 2026-04-24 20:25 | 53.49075 | 10.12635 | 9431 ft | 288 kts | 353° |
| 2026-04-24 20:25 | 53.51072 | 10.12384 | 9300 ft | 287 kts | 353° |
| 2026-04-24 20:25 | 53.53069 | 10.12131 | 9169 ft | 287 kts | 353° |
| 2026-04-24 20:26 | 53.55060 | 10.11878 | 9032 ft | 286 kts | 353° |
| 2026-04-24 20:26 | 53.57053 | 10.11800 | 8919 ft | 289 kts | 5° |
| 2026-04-24 20:26 | 53.58940 | 10.12999 | 8793 ft | 297 kts | 30° |
| 2026-04-24 20:26 | 53.60419 | 10.15481 | 8658 ft | 304 kts | 45° |
| 2026-04-24 20:27 | 53.61777 | 10.18211 | 8536 ft | 304 kts | 45° |
| 2026-04-24 20:27 | 53.63126 | 10.20954 | 8407 ft | 304 kts | 45° |
| 2026-04-24 20:27 | 53.64471 | 10.23698 | 8282 ft | 303 kts | 45° |
| 2026-04-24 20:27 | 53.65812 | 10.26431 | 8151 ft | 302 kts | 45° |
| 2026-04-24 20:28 | 53.67154 | 10.29160 | 8032 ft | 302 kts | 45° |
| 2026-04-24 20:28 | 53.68494 | 10.31879 | 7896 ft | 301 kts | 45° |
| 2026-04-24 20:28 | 53.69833 | 10.34590 | 7767 ft | 300 kts | 45° |
| 2026-04-24 20:28 | 53.71140 | 10.37238 | 7634 ft | 283 kts | 45° |
| 2026-04-24 20:29 | 53.71947 | 10.38886 | 7547 ft | 267 kts | 45° |
| 2026-04-24 20:29 | 53.73452 | 10.41965 | 7229 ft | 244 kts | 44° |
| 2026-04-24 20:29 | 53.74518 | 10.44127 | 7090 ft | 242 kts | 44° |
| 2026-04-24 20:29 | 53.75602 | 10.46312 | 6976 ft | 242 kts | 44° |
| 2026-04-24 20:30 | 53.76334 | 10.47786 | 6898 ft | 242 kts | 44° |
| 2026-04-24 20:30 | 53.77818 | 10.50561 | 6736 ft | 236 kts | 30° |
| 2026-04-24 20:30 | 53.79280 | 10.51531 | 6534 ft | 222 kts | 359° |
| 2026-04-24 20:30 | 53.80733 | 10.50999 | 6185 ft | 214 kts | 327° |
| 2026-04-24 20:31 | 53.81716 | 10.49164 | 5804 ft | 215 kts | 295° |
| 2026-04-24 20:31 | 53.81914 | 10.46645 | 5455 ft | 222 kts | 269° |
| 2026-04-24 20:31 | 53.81697 | 10.44040 | 5090 ft | 224 kts | 265° |
| 2026-04-24 20:31 | 53.81431 | 10.41513 | 4982 ft | 215 kts | 264° |
| 2026-04-24 20:32 | 53.81162 | 10.39096 | 4986 ft | 206 kts | 264° |
| 2026-04-24 20:32 | 53.80888 | 10.36727 | 4988 ft | 205 kts | 264° |
| 2026-04-24 20:32 | 53.80446 | 10.34423 | 4989 ft | 211 kts | 243° |
| 2026-04-24 20:32 | 53.79526 | 10.32437 | 4901 ft | 216 kts | 236° |
| 2026-04-24 20:33 | 53.78562 | 10.30481 | 4682 ft | 216 kts | 237° |
| 2026-04-24 20:33 | 53.77604 | 10.28525 | 4402 ft | 216 kts | 237° |
| 2026-04-24 20:33 | 53.76650 | 10.26570 | 4106 ft | 215 kts | 237° |
| 2026-04-24 20:33 | 53.75701 | 10.24626 | 3830 ft | 214 kts | 237° |
| 2026-04-24 20:34 | 53.74767 | 10.22716 | 3554 ft | 207 kts | 237° |
| 2026-04-24 20:34 | 53.73877 | 10.20902 | 3297 ft | 194 kts | 238° |
| 2026-04-24 20:34 | 53.73038 | 10.19187 | 3028 ft | 185 kts | 238° |
| 2026-04-24 20:34 | 53.72228 | 10.17530 | 2820 ft | 181 kts | 238° |
| 2026-04-24 20:35 | 53.71431 | 10.15900 | 2557 ft | 178 kts | 238° |
| 2026-04-24 20:35 | 53.70647 | 10.14302 | 2300 ft | 175 kts | 238° |
| 2026-04-24 20:35 | 53.69886 | 10.12750 | 2068 ft | 172 kts | 238° |
| 2026-04-24 20:35 | 53.69131 | 10.11211 | 1835 ft | 168 kts | 238° |
| 2026-04-24 20:36 | 53.68395 | 10.09717 | 1588 ft | 158 kts | 238° |
| 2026-04-24 20:36 | 53.67734 | 10.08377 | 1372 ft | 141 kts | 238° |
| 2026-04-24 20:36 | 53.67128 | 10.07144 | 1183 ft | 134 kts | 239° |
| 2026-04-24 20:36 | 53.66545 | 10.05955 | 1010 ft | 130 kts | 238° |
| 2026-04-24 20:37 | 53.65973 | 10.04790 | 826 ft | 128 kts | 238° |
| 2026-04-24 20:37 | 53.65396 | 10.03621 | 601 ft | 128 kts | 238° |
| 2026-04-24 20:37 | 53.64835 | 10.02481 | 469 ft | 131 kts | 237° |
| 2026-04-24 20:37 | 53.64258 | 10.01312 | 327 ft | 127 kts | 238° |
| 2026-04-24 20:38 | 53.63692 | 10.00158 | 125 ft | 128 kts | 235° |
| 2026-04-24 20:38 | 53.63155 | 9.99070 | 47 ft | 105 kts | 231° |
| 2026-04-24 20:38 | 53.62868 | 9.98522 | 44 ft | 27 kts | 208° |
| 2026-04-24 20:38 | 53.62724 | 9.98478 | 46 ft | 13 kts | 171° |
| 2026-04-24 20:39 | 53.62707 | 9.98578 | 47 ft | 10 kts | 58° |
| 2026-04-24 20:39 | 53.62733 | 9.98632 | 47 ft | 5 kts | 50° |
| 2026-04-24 20:39 | 53.62754 | 9.98677 | 47 ft | 5 kts | 51° |
| 2026-04-24 20:39 | 53.62776 | 9.98723 | 47 ft | 5 kts | 51° |
| 2026-04-24 20:40 | 53.62808 | 9.98791 | 45 ft | 14 kts | 50° |
| 2026-04-24 20:40 | 53.62885 | 9.98944 | 47 ft | 16 kts | 50° |
| 2026-04-24 20:40 | 53.62940 | 9.99055 | 47 ft | 11 kts | 50° |
| 2026-04-24 20:40 | 53.62987 | 9.99150 | 47 ft | 10 kts | 50° |
| 2026-04-24 20:41 | 53.63030 | 9.99238 | 47 ft | 10 kts | 51° |
| 2026-04-24 20:41 | 53.63069 | 9.99326 | 47 ft | 9 kts | 54° |
| 2026-04-24 20:41 | 53.63104 | 9.99412 | 46 ft | 10 kts | 56° |
| 2026-04-24 20:41 | 53.63161 | 9.99543 | 46 ft | 15 kts | 52° |
| 2026-04-24 20:42 | 53.63203 | 9.99630 | 48 ft | 13 kts | 51° |
| 2026-04-24 20:42 | 53.63261 | 9.99734 | 48 ft | 12 kts | 45° |
| 2026-04-24 20:42 | 53.63314 | 9.99829 | 47 ft | 11 kts | 49° |
| 2026-04-24 20:42 | 53.63375 | 9.99951 | 48 ft | 10 kts | 51° |
| 2026-04-24 20:43 | 53.63417 | 10.00039 | 48 ft | 9 kts | 51° |
| 2026-04-24 20:43 | 53.63431 | 10.00105 | 48 ft | 9 kts | 91° |
| 2026-04-24 20:43 | 53.63389 | 10.00160 | 48 ft | 10 kts | 173° |
| 2026-04-24 20:43 | 53.63291 | 10.00170 | 48 ft | 16 kts | 176° |
| 2026-04-24 20:44 | 53.63203 | 10.00183 | 48 ft | 11 kts | 174° |
| 2026-04-24 20:44 | 53.63155 | 10.00209 | 48 ft | 5 kts | 157° |
| 2026-04-24 20:44 | 53.63116 | 10.00243 | 48 ft | 9 kts | 129° |
| 2026-04-24 20:44 | 53.63111 | 10.00339 | 48 ft | 7 kts | 86° |
| 2026-04-24 20:45 | 53.63112 | 10.00368 | 48 ft | 2 kts | 87° |
| 2026-04-24 20:45 | 53.63112 | 10.00374 | 48 ft | 0 kts | 87° |